sensor_id;sensor_type;location;lat;lon;timestamp;temperature;humidity
69533;DHT22;56729;52.036;5.332;2022-07-29T00:00:00;17.60;69.70
69533;DHT22;56729;52.036;5.332;2022-07-29T00:01:05;17.60;69.70
69533;DHT22;56729;52.036;5.332;2022-07-29T00:02:07;17.50;69.60
69533;DHT22;56729;52.036;5.332;2022-07-29T00:03:09;17.50;70.00
69533;DHT22;56729;52.036;5.332;2022-07-29T00:04:11;17.50;69.80
69533;DHT22;56729;52.036;5.332;2022-07-29T00:05:14;17.50;69.60
69533;DHT22;56729;52.036;5.332;2022-07-29T00:06:16;17.50;69.90
69533;DHT22;56729;52.036;5.332;2022-07-29T00:07:18;17.50;71.00
69533;DHT22;56729;52.036;5.332;2022-07-29T00:08:20;17.50;70.40
69533;DHT22;56729;52.036;5.332;2022-07-29T00:09:24;17.50;70.40
69533;DHT22;56729;52.036;5.332;2022-07-29T00:10:26;17.50;70.10
69533;DHT22;56729;52.036;5.332;2022-07-29T00:11:28;17.50;70.30
69533;DHT22;56729;52.036;5.332;2022-07-29T00:12:30;17.40;71.50
69533;DHT22;56729;52.036;5.332;2022-07-29T00:13:32;17.40;70.20
69533;DHT22;56729;52.036;5.332;2022-07-29T00:14:35;17.40;70.50
69533;DHT22;56729;52.036;5.332;2022-07-29T00:15:36;17.40;70.70
69533;DHT22;56729;52.036;5.332;2022-07-29T00:16:38;17.40;70.70
69533;DHT22;56729;52.036;5.332;2022-07-29T00:17:40;17.40;70.70
69533;DHT22;56729;52.036;5.332;2022-07-29T00:18:42;17.40;70.70
69533;DHT22;56729;52.036;5.332;2022-07-29T00:19:44;17.40;70.70
69533;DHT22;56729;52.036;5.332;2022-07-29T00:20:46;17.30;70.70
69533;DHT22;56729;52.036;5.332;2022-07-29T00:21:48;17.30;70.60
69533;DHT22;56729;52.036;5.332;2022-07-29T00:22:50;17.30;70.70
69533;DHT22;56729;52.036;5.332;2022-07-29T00:23:53;17.30;70.60
69533;DHT22;56729;52.036;5.332;2022-07-29T00:24:55;17.30;70.70
69533;DHT22;56729;52.036;5.332;2022-07-29T00:25:57;17.30;70.70
69533;DHT22;56729;52.036;5.332;2022-07-29T00:26:59;17.30;70.80
69533;DHT22;56729;52.036;5.332;2022-07-29T00:28:01;17.30;70.80
69533;DHT22;56729;52.036;5.332;2022-07-29T00:29:04;17.30;70.70
69533;DHT22;56729;52.036;5.332;2022-07-29T00:30:26;17.30;70.80
69533;DHT22;56729;52.036;5.332;2022-07-29T00:31:28;17.20;70.90
69533;DHT22;56729;52.036;5.332;2022-07-29T00:32:30;17.20;71.30
69533;DHT22;56729;52.036;5.332;2022-07-29T00:33:32;17.20;71.30
69533;DHT22;56729;52.036;5.332;2022-07-29T00:34:34;17.20;71.40
69533;DHT22;56729;52.036;5.332;2022-07-29T00:35:54;17.20;71.50
69533;DHT22;56729;52.036;5.332;2022-07-29T00:36:57;17.20;71.60
69533;DHT22;56729;52.036;5.332;2022-07-29T00:37:59;17.10;71.70
69533;DHT22;56729;52.036;5.332;2022-07-29T00:39:02;17.10;71.70
69533;DHT22;56729;52.036;5.332;2022-07-29T00:40:05;17.10;71.70
69533;DHT22;56729;52.036;5.332;2022-07-29T00:41:07;17.10;71.40
69533;DHT22;56729;52.036;5.332;2022-07-29T00:42:09;17.10;71.40
69533;DHT22;56729;52.036;5.332;2022-07-29T00:43:12;17.10;71.60
69533;DHT22;56729;52.036;5.332;2022-07-29T00:44:15;17.10;71.70
69533;DHT22;56729;52.036;5.332;2022-07-29T00:45:18;17.10;71.70
69533;DHT22;56729;52.036;5.332;2022-07-29T00:46:21;17.10;71.90
69533;DHT22;56729;52.036;5.332;2022-07-29T00:47:23;17.10;71.80
69533;DHT22;56729;52.036;5.332;2022-07-29T00:48:25;17.10;72.10
69533;DHT22;56729;52.036;5.332;2022-07-29T00:49:27;17.10;72.10
69533;DHT22;56729;52.036;5.332;2022-07-29T00:50:29;17.00;72.20
69533;DHT22;56729;52.036;5.332;2022-07-29T00:51:31;17.00;72.00
69533;DHT22;56729;52.036;5.332;2022-07-29T00:52:36;17.10;73.10
69533;DHT22;56729;52.036;5.332;2022-07-29T00:53:38;17.00;71.90
69533;DHT22;56729;52.036;5.332;2022-07-29T00:54:40;17.10;72.10
69533;DHT22;56729;52.036;5.332;2022-07-29T00:55:45;17.00;71.70
69533;DHT22;56729;52.036;5.332;2022-07-29T00:56:47;17.00;71.70
69533;DHT22;56729;52.036;5.332;2022-07-29T00:57:50;17.00;72.00
69533;DHT22;56729;52.036;5.332;2022-07-29T00:58:52;17.00;72.60
69533;DHT22;56729;52.036;5.332;2022-07-29T00:59:55;17.00;72.60
69533;DHT22;56729;52.036;5.332;2022-07-29T01:00:58;17.00;72.40
69533;DHT22;56729;52.036;5.332;2022-07-29T01:02:00;17.00;72.70
69533;DHT22;56729;52.036;5.332;2022-07-29T01:03:02;16.90;72.50
69533;DHT22;56729;52.036;5.332;2022-07-29T01:04:06;16.90;72.50
69533;DHT22;56729;52.036;5.332;2022-07-29T01:05:08;16.90;72.60
69533;DHT22;56729;52.036;5.332;2022-07-29T01:06:12;16.90;72.70
69533;DHT22;56729;52.036;5.332;2022-07-29T01:07:14;16.90;72.70
69533;DHT22;56729;52.036;5.332;2022-07-29T01:08:17;16.90;72.70
69533;DHT22;56729;52.036;5.332;2022-07-29T01:09:21;16.90;73.00
69533;DHT22;56729;52.036;5.332;2022-07-29T01:10:46;16.90;72.90
69533;DHT22;56729;52.036;5.332;2022-07-29T01:11:50;16.80;73.10
69533;DHT22;56729;52.036;5.332;2022-07-29T01:12:54;16.80;73.20
69533;DHT22;56729;52.036;5.332;2022-07-29T01:13:56;16.80;73.10
69533;DHT22;56729;52.036;5.332;2022-07-29T01:14:59;16.80;72.80
69533;DHT22;56729;52.036;5.332;2022-07-29T01:16:13;16.80;73.00
69533;DHT22;56729;52.036;5.332;2022-07-29T01:17:27;16.80;73.60
69533;DHT22;56729;52.036;5.332;2022-07-29T01:18:33;16.70;73.50
69533;DHT22;56729;52.036;5.332;2022-07-29T01:19:48;16.70;73.60
69533;DHT22;56729;52.036;5.332;2022-07-29T01:22:47;16.70;73.70
69533;DHT22;56729;52.036;5.332;2022-07-29T01:23:59;16.70;73.80
69533;DHT22;56729;52.036;5.332;2022-07-29T01:29:12;16.70;73.60
69533;DHT22;56729;52.036;5.332;2022-07-29T01:30:20;16.70;73.60
69533;DHT22;56729;52.036;5.332;2022-07-29T01:33:05;16.70;73.60
69533;DHT22;56729;52.036;5.332;2022-07-29T01:34:11;16.70;73.60
69533;DHT22;56729;52.036;5.332;2022-07-29T01:35:20;16.70;73.40
69533;DHT22;56729;52.036;5.332;2022-07-29T01:36:35;16.70;73.60
69533;DHT22;56729;52.036;5.332;2022-07-29T01:37:48;16.70;73.80
69533;DHT22;56729;52.036;5.332;2022-07-29T01:39:08;16.70;73.80
69533;DHT22;56729;52.036;5.332;2022-07-29T01:40:22;16.70;73.80
69533;DHT22;56729;52.036;5.332;2022-07-29T01:41:28;16.70;74.00
69533;DHT22;56729;52.036;5.332;2022-07-29T01:42:39;16.70;74.10
69533;DHT22;56729;52.036;5.332;2022-07-29T01:43:56;16.60;74.00
69533;DHT22;56729;52.036;5.332;2022-07-29T01:46:12;16.60;73.90
69533;DHT22;56729;52.036;5.332;2022-07-29T01:47:19;16.60;74.10
69533;DHT22;56729;52.036;5.332;2022-07-29T01:48:35;16.60;73.90
69533;DHT22;56729;52.036;5.332;2022-07-29T01:49:43;16.50;74.10
69533;DHT22;56729;52.036;5.332;2022-07-29T01:51:02;16.50;74.20
69533;DHT22;56729;52.036;5.332;2022-07-29T01:52:08;16.50;74.10
69533;DHT22;56729;52.036;5.332;2022-07-29T01:53:13;16.50;74.20
69533;DHT22;56729;52.036;5.332;2022-07-29T01:54:35;16.40;74.40
69533;DHT22;56729;52.036;5.332;2022-07-29T01:55:42;16.50;74.40
69533;DHT22;56729;52.036;5.332;2022-07-29T01:56:48;16.50;74.40
69533;DHT22;56729;52.036;5.332;2022-07-29T01:57:51;16.50;74.70
69533;DHT22;56729;52.036;5.332;2022-07-29T01:58:54;16.40;74.60
69533;DHT22;56729;52.036;5.332;2022-07-29T01:59:59;16.40;74.60
69533;DHT22;56729;52.036;5.332;2022-07-29T02:01:12;16.40;74.40
69533;DHT22;56729;52.036;5.332;2022-07-29T02:02:16;16.40;74.50
69533;DHT22;56729;52.036;5.332;2022-07-29T02:03:18;16.50;75.30
69533;DHT22;56729;52.036;5.332;2022-07-29T02:04:21;16.50;75.00
69533;DHT22;56729;52.036;5.332;2022-07-29T02:05:32;16.50;75.20
69533;DHT22;56729;52.036;5.332;2022-07-29T02:06:38;16.50;75.30
69533;DHT22;56729;52.036;5.332;2022-07-29T02:07:43;16.50;75.20
69533;DHT22;56729;52.036;5.332;2022-07-29T02:08:47;16.50;75.00
69533;DHT22;56729;52.036;5.332;2022-07-29T02:09:50;16.50;75.20
69533;DHT22;56729;52.036;5.332;2022-07-29T02:10:55;16.50;75.10
69533;DHT22;56729;52.036;5.332;2022-07-29T02:11:59;16.50;75.00
69533;DHT22;56729;52.036;5.332;2022-07-29T02:13:03;16.50;75.30
69533;DHT22;56729;52.036;5.332;2022-07-29T02:14:07;16.50;75.20
69533;DHT22;56729;52.036;5.332;2022-07-29T02:15:11;16.50;75.60
69533;DHT22;56729;52.036;5.332;2022-07-29T02:16:16;16.50;75.30
69533;DHT22;56729;52.036;5.332;2022-07-29T02:17:27;16.50;75.30
69533;DHT22;56729;52.036;5.332;2022-07-29T02:18:30;16.50;75.40
69533;DHT22;56729;52.036;5.332;2022-07-29T02:19:33;16.50;75.20
69533;DHT22;56729;52.036;5.332;2022-07-29T02:20:36;16.50;75.00
69533;DHT22;56729;52.036;5.332;2022-07-29T02:21:39;16.50;75.30
69533;DHT22;56729;52.036;5.332;2022-07-29T02:22:43;16.50;75.30
69533;DHT22;56729;52.036;5.332;2022-07-29T02:23:47;16.50;75.70
69533;DHT22;56729;52.036;5.332;2022-07-29T02:24:52;16.50;75.00
69533;DHT22;56729;52.036;5.332;2022-07-29T02:25:56;16.50;75.80
69533;DHT22;56729;52.036;5.332;2022-07-29T02:27:00;16.60;75.20
69533;DHT22;56729;52.036;5.332;2022-07-29T02:28:04;16.60;75.10
69533;DHT22;56729;52.036;5.332;2022-07-29T02:29:06;16.60;75.20
69533;DHT22;56729;52.036;5.332;2022-07-29T02:30:11;16.60;74.90
69533;DHT22;56729;52.036;5.332;2022-07-29T02:31:14;16.50;74.70
69533;DHT22;56729;52.036;5.332;2022-07-29T02:32:17;16.50;75.20
69533;DHT22;56729;52.036;5.332;2022-07-29T02:33:21;16.50;75.00
69533;DHT22;56729;52.036;5.332;2022-07-29T02:34:25;16.50;75.00
69533;DHT22;56729;52.036;5.332;2022-07-29T02:35:29;16.50;75.60
69533;DHT22;56729;52.036;5.332;2022-07-29T02:36:36;16.50;74.50
69533;DHT22;56729;52.036;5.332;2022-07-29T02:37:40;16.50;74.60
69533;DHT22;56729;52.036;5.332;2022-07-29T02:38:43;16.50;74.50
69533;DHT22;56729;52.036;5.332;2022-07-29T02:39:57;16.50;74.60
69533;DHT22;56729;52.036;5.332;2022-07-29T02:41:09;16.50;74.70
69533;DHT22;56729;52.036;5.332;2022-07-29T02:42:16;16.50;74.70
69533;DHT22;56729;52.036;5.332;2022-07-29T02:43:21;16.50;74.70
69533;DHT22;56729;52.036;5.332;2022-07-29T02:44:25;16.50;74.70
69533;DHT22;56729;52.036;5.332;2022-07-29T02:45:36;16.50;74.70
69533;DHT22;56729;52.036;5.332;2022-07-29T02:46:50;16.50;74.90
69533;DHT22;56729;52.036;5.332;2022-07-29T02:47:53;16.50;75.10
69533;DHT22;56729;52.036;5.332;2022-07-29T02:50:20;16.50;75.10
69533;DHT22;56729;52.036;5.332;2022-07-29T02:51:54;16.50;74.60
69533;DHT22;56729;52.036;5.332;2022-07-29T02:53:07;16.50;74.40
69533;DHT22;56729;52.036;5.332;2022-07-29T02:54:14;16.50;74.70
69533;DHT22;56729;52.036;5.332;2022-07-29T02:55:29;16.50;74.80
69533;DHT22;56729;52.036;5.332;2022-07-29T02:56:33;16.50;75.00
69533;DHT22;56729;52.036;5.332;2022-07-29T02:57:59;16.50;75.00
69533;DHT22;56729;52.036;5.332;2022-07-29T02:59:06;16.50;74.90
69533;DHT22;56729;52.036;5.332;2022-07-29T03:00:10;16.50;74.90
69533;DHT22;56729;52.036;5.332;2022-07-29T03:01:17;16.50;74.80
69533;DHT22;56729;52.036;5.332;2022-07-29T03:02:23;16.50;75.10
69533;DHT22;56729;52.036;5.332;2022-07-29T03:03:34;16.40;74.90
69533;DHT22;56729;52.036;5.332;2022-07-29T03:04:40;16.40;76.00
69533;DHT22;56729;52.036;5.332;2022-07-29T03:05:43;16.50;75.30
69533;DHT22;56729;52.036;5.332;2022-07-29T03:06:45;16.40;75.00
69533;DHT22;56729;52.036;5.332;2022-07-29T03:07:53;16.50;75.00
69533;DHT22;56729;52.036;5.332;2022-07-29T03:08:57;16.50;75.10
69533;DHT22;56729;52.036;5.332;2022-07-29T03:09:59;16.50;75.00
69533;DHT22;56729;52.036;5.332;2022-07-29T03:11:03;16.50;75.20
69533;DHT22;56729;52.036;5.332;2022-07-29T03:12:05;16.40;75.10
69533;DHT22;56729;52.036;5.332;2022-07-29T03:13:08;16.50;75.20
69533;DHT22;56729;52.036;5.332;2022-07-29T03:14:11;16.50;75.10
69533;DHT22;56729;52.036;5.332;2022-07-29T03:15:14;16.40;74.90
69533;DHT22;56729;52.036;5.332;2022-07-29T03:16:18;16.50;74.90
69533;DHT22;56729;52.036;5.332;2022-07-29T03:17:21;16.50;74.70
69533;DHT22;56729;52.036;5.332;2022-07-29T03:18:24;16.40;74.90
69533;DHT22;56729;52.036;5.332;2022-07-29T03:19:27;16.40;74.70
69533;DHT22;56729;52.036;5.332;2022-07-29T03:20:29;16.40;74.70
69533;DHT22;56729;52.036;5.332;2022-07-29T03:21:31;16.40;75.00
69533;DHT22;56729;52.036;5.332;2022-07-29T03:22:39;16.40;74.70
69533;DHT22;56729;52.036;5.332;2022-07-29T03:23:45;16.40;74.50
69533;DHT22;56729;52.036;5.332;2022-07-29T03:24:47;16.40;75.80
69533;DHT22;56729;52.036;5.332;2022-07-29T03:25:49;16.40;74.50
69533;DHT22;56729;52.036;5.332;2022-07-29T03:26:52;16.40;74.60
69533;DHT22;56729;52.036;5.332;2022-07-29T03:27:54;16.40;74.60
69533;DHT22;56729;52.036;5.332;2022-07-29T03:28:56;16.40;74.60
69533;DHT22;56729;52.036;5.332;2022-07-29T03:29:57;16.40;74.60
69533;DHT22;56729;52.036;5.332;2022-07-29T03:30:59;16.40;74.80
69533;DHT22;56729;52.036;5.332;2022-07-29T03:32:04;16.40;74.90
69533;DHT22;56729;52.036;5.332;2022-07-29T03:33:09;16.40;75.90
69533;DHT22;56729;52.036;5.332;2022-07-29T03:34:14;16.40;74.70
69533;DHT22;56729;52.036;5.332;2022-07-29T03:35:16;16.40;74.70
69533;DHT22;56729;52.036;5.332;2022-07-29T03:36:19;16.40;74.90
69533;DHT22;56729;52.036;5.332;2022-07-29T03:37:21;16.40;74.80
69533;DHT22;56729;52.036;5.332;2022-07-29T03:38:25;16.40;74.90
69533;DHT22;56729;52.036;5.332;2022-07-29T03:39:32;16.40;74.80
69533;DHT22;56729;52.036;5.332;2022-07-29T03:40:48;16.40;74.90
69533;DHT22;56729;52.036;5.332;2022-07-29T03:41:55;16.40;75.20
69533;DHT22;56729;52.036;5.332;2022-07-29T03:42:59;16.40;74.80
69533;DHT22;56729;52.036;5.332;2022-07-29T03:44:02;16.40;74.80
69533;DHT22;56729;52.036;5.332;2022-07-29T03:45:07;16.40;74.90
69533;DHT22;56729;52.036;5.332;2022-07-29T03:46:11;16.40;75.00
69533;DHT22;56729;52.036;5.332;2022-07-29T03:47:17;16.40;74.90
69533;DHT22;56729;52.036;5.332;2022-07-29T03:48:24;16.40;74.70
69533;DHT22;56729;52.036;5.332;2022-07-29T03:49:26;16.30;74.70
69533;DHT22;56729;52.036;5.332;2022-07-29T03:50:30;16.30;74.80
69533;DHT22;56729;52.036;5.332;2022-07-29T03:51:34;16.40;74.90
69533;DHT22;56729;52.036;5.332;2022-07-29T03:52:36;16.30;75.00
69533;DHT22;56729;52.036;5.332;2022-07-29T03:53:39;16.30;75.10
69533;DHT22;56729;52.036;5.332;2022-07-29T03:54:42;16.30;75.30
69533;DHT22;56729;52.036;5.332;2022-07-29T03:55:47;16.30;75.10
69533;DHT22;56729;52.036;5.332;2022-07-29T03:56:51;16.40;75.30
69533;DHT22;56729;52.036;5.332;2022-07-29T03:57:56;16.30;75.00
69533;DHT22;56729;52.036;5.332;2022-07-29T03:58:58;16.30;75.10
69533;DHT22;56729;52.036;5.332;2022-07-29T04:00:02;16.30;75.20
69533;DHT22;56729;52.036;5.332;2022-07-29T04:01:04;16.30;75.20
69533;DHT22;56729;52.036;5.332;2022-07-29T04:02:09;16.30;75.30
69533;DHT22;56729;52.036;5.332;2022-07-29T04:03:13;16.30;75.10
69533;DHT22;56729;52.036;5.332;2022-07-29T04:04:17;16.30;75.10
69533;DHT22;56729;52.036;5.332;2022-07-29T04:05:20;16.30;75.20
69533;DHT22;56729;52.036;5.332;2022-07-29T04:06:22;16.30;75.10
69533;DHT22;56729;52.036;5.332;2022-07-29T04:07:24;16.30;74.90
69533;DHT22;56729;52.036;5.332;2022-07-29T04:08:26;16.30;74.80
69533;DHT22;56729;52.036;5.332;2022-07-29T04:09:28;16.30;75.20
69533;DHT22;56729;52.036;5.332;2022-07-29T04:10:31;16.30;75.30
69533;DHT22;56729;52.036;5.332;2022-07-29T04:11:38;16.30;75.30
69533;DHT22;56729;52.036;5.332;2022-07-29T04:13:00;16.30;75.20
69533;DHT22;56729;52.036;5.332;2022-07-29T04:14:02;16.30;75.00
69533;DHT22;56729;52.036;5.332;2022-07-29T04:15:05;16.30;74.80
69533;DHT22;56729;52.036;5.332;2022-07-29T04:16:07;16.30;75.20
69533;DHT22;56729;52.036;5.332;2022-07-29T04:17:09;16.30;75.20
69533;DHT22;56729;52.036;5.332;2022-07-29T04:18:10;16.30;75.40
69533;DHT22;56729;52.036;5.332;2022-07-29T04:19:13;16.30;75.50
69533;DHT22;56729;52.036;5.332;2022-07-29T04:20:16;16.30;75.50
69533;DHT22;56729;52.036;5.332;2022-07-29T04:21:18;16.30;75.30
69533;DHT22;56729;52.036;5.332;2022-07-29T04:22:20;16.30;75.50
69533;DHT22;56729;52.036;5.332;2022-07-29T04:23:23;16.30;75.30
69533;DHT22;56729;52.036;5.332;2022-07-29T04:24:25;16.20;75.00
69533;DHT22;56729;52.036;5.332;2022-07-29T04:25:28;16.30;75.10
69533;DHT22;56729;52.036;5.332;2022-07-29T04:26:29;16.20;75.10
69533;DHT22;56729;52.036;5.332;2022-07-29T04:27:31;16.20;75.10
69533;DHT22;56729;52.036;5.332;2022-07-29T04:28:33;16.20;75.10
69533;DHT22;56729;52.036;5.332;2022-07-29T04:29:35;16.20;75.40
69533;DHT22;56729;52.036;5.332;2022-07-29T04:30:57;16.30;75.30
69533;DHT22;56729;52.036;5.332;2022-07-29T04:31:58;16.30;75.40
69533;DHT22;56729;52.036;5.332;2022-07-29T04:33:04;16.20;75.40
69533;DHT22;56729;52.036;5.332;2022-07-29T04:34:06;16.30;75.50
69533;DHT22;56729;52.036;5.332;2022-07-29T04:35:09;16.30;75.40
69533;DHT22;56729;52.036;5.332;2022-07-29T04:36:11;16.30;75.20
69533;DHT22;56729;52.036;5.332;2022-07-29T04:37:30;16.30;75.60
69533;DHT22;56729;52.036;5.332;2022-07-29T04:38:32;16.20;75.70
69533;DHT22;56729;52.036;5.332;2022-07-29T04:39:34;16.20;75.60
69533;DHT22;56729;52.036;5.332;2022-07-29T04:40:35;16.20;75.50
69533;DHT22;56729;52.036;5.332;2022-07-29T04:41:39;16.20;75.50
69533;DHT22;56729;52.036;5.332;2022-07-29T04:42:43;16.20;75.50
69533;DHT22;56729;52.036;5.332;2022-07-29T04:43:48;16.20;75.30
69533;DHT22;56729;52.036;5.332;2022-07-29T04:44:50;16.20;75.40
69533;DHT22;56729;52.036;5.332;2022-07-29T04:45:52;16.20;75.30
69533;DHT22;56729;52.036;5.332;2022-07-29T04:46:54;16.20;75.10
69533;DHT22;56729;52.036;5.332;2022-07-29T04:47:56;16.20;75.40
69533;DHT22;56729;52.036;5.332;2022-07-29T04:48:58;16.20;75.60
69533;DHT22;56729;52.036;5.332;2022-07-29T04:50:00;16.20;75.40
69533;DHT22;56729;52.036;5.332;2022-07-29T04:51:02;16.20;75.50
69533;DHT22;56729;52.036;5.332;2022-07-29T04:52:05;16.30;75.60
69533;DHT22;56729;52.036;5.332;2022-07-29T04:53:07;16.30;75.40
69533;DHT22;56729;52.036;5.332;2022-07-29T04:54:09;16.30;75.00
69533;DHT22;56729;52.036;5.332;2022-07-29T04:55:11;16.30;75.20
69533;DHT22;56729;52.036;5.332;2022-07-29T04:56:13;16.30;75.50
69533;DHT22;56729;52.036;5.332;2022-07-29T04:57:15;16.30;75.60
69533;DHT22;56729;52.036;5.332;2022-07-29T04:58:17;16.30;75.50
69533;DHT22;56729;52.036;5.332;2022-07-29T04:59:19;16.30;75.60
69533;DHT22;56729;52.036;5.332;2022-07-29T05:00:21;16.30;75.50
69533;DHT22;56729;52.036;5.332;2022-07-29T05:01:32;16.30;75.60
69533;DHT22;56729;52.036;5.332;2022-07-29T05:02:35;16.30;75.60
69533;DHT22;56729;52.036;5.332;2022-07-29T05:03:37;16.30;75.10
69533;DHT22;56729;52.036;5.332;2022-07-29T05:04:42;16.30;75.30
69533;DHT22;56729;52.036;5.332;2022-07-29T05:05:43;16.30;75.30
69533;DHT22;56729;52.036;5.332;2022-07-29T05:06:46;16.30;75.00
69533;DHT22;56729;52.036;5.332;2022-07-29T05:07:48;16.30;75.00
69533;DHT22;56729;52.036;5.332;2022-07-29T05:08:50;16.40;74.80
69533;DHT22;56729;52.036;5.332;2022-07-29T05:09:52;16.40;75.10
69533;DHT22;56729;52.036;5.332;2022-07-29T05:10:54;16.40;75.10
69533;DHT22;56729;52.036;5.332;2022-07-29T05:11:56;16.40;75.10
69533;DHT22;56729;52.036;5.332;2022-07-29T05:12:58;16.40;74.80
69533;DHT22;56729;52.036;5.332;2022-07-29T05:14:01;16.40;74.70
69533;DHT22;56729;52.036;5.332;2022-07-29T05:15:04;16.40;74.80
69533;DHT22;56729;52.036;5.332;2022-07-29T05:16:08;16.50;74.80
69533;DHT22;56729;52.036;5.332;2022-07-29T05:17:10;16.50;74.70
69533;DHT22;56729;52.036;5.332;2022-07-29T05:18:12;16.50;74.70
69533;DHT22;56729;52.036;5.332;2022-07-29T05:19:14;16.50;74.90
69533;DHT22;56729;52.036;5.332;2022-07-29T05:20:16;16.50;75.00
69533;DHT22;56729;52.036;5.332;2022-07-29T05:21:19;16.50;75.20
69533;DHT22;56729;52.036;5.332;2022-07-29T05:22:21;16.50;75.20
69533;DHT22;56729;52.036;5.332;2022-07-29T05:23:23;16.50;75.20
69533;DHT22;56729;52.036;5.332;2022-07-29T05:24:25;16.50;75.20
69533;DHT22;56729;52.036;5.332;2022-07-29T05:25:28;16.50;74.90
69533;DHT22;56729;52.036;5.332;2022-07-29T05:26:44;16.50;75.30
69533;DHT22;56729;52.036;5.332;2022-07-29T05:27:47;16.50;74.80
69533;DHT22;56729;52.036;5.332;2022-07-29T05:28:51;16.60;74.60
69533;DHT22;56729;52.036;5.332;2022-07-29T05:29:53;16.60;74.90
69533;DHT22;56729;52.036;5.332;2022-07-29T05:30:55;16.60;75.10
69533;DHT22;56729;52.036;5.332;2022-07-29T05:31:58;16.50;75.20
69533;DHT22;56729;52.036;5.332;2022-07-29T05:33:00;16.60;75.40
69533;DHT22;56729;52.036;5.332;2022-07-29T05:34:02;16.60;75.10
69533;DHT22;56729;52.036;5.332;2022-07-29T05:35:05;16.60;75.10
69533;DHT22;56729;52.036;5.332;2022-07-29T05:36:08;16.60;75.30
69533;DHT22;56729;52.036;5.332;2022-07-29T05:37:10;16.60;75.10
69533;DHT22;56729;52.036;5.332;2022-07-29T05:38:14;16.60;75.00
69533;DHT22;56729;52.036;5.332;2022-07-29T05:39:16;16.60;74.70
69533;DHT22;56729;52.036;5.332;2022-07-29T05:40:19;16.60;74.40
69533;DHT22;56729;52.036;5.332;2022-07-29T05:41:22;16.60;74.30
69533;DHT22;56729;52.036;5.332;2022-07-29T05:42:24;16.60;74.40
69533;DHT22;56729;52.036;5.332;2022-07-29T05:43:30;16.60;74.40
69533;DHT22;56729;52.036;5.332;2022-07-29T05:44:36;16.60;74.40
69533;DHT22;56729;52.036;5.332;2022-07-29T05:45:39;16.60;74.20
69533;DHT22;56729;52.036;5.332;2022-07-29T05:46:50;16.60;74.40
69533;DHT22;56729;52.036;5.332;2022-07-29T05:47:52;16.60;74.70
69533;DHT22;56729;52.036;5.332;2022-07-29T05:48:54;16.60;74.80
69533;DHT22;56729;52.036;5.332;2022-07-29T05:49:56;16.60;74.90
69533;DHT22;56729;52.036;5.332;2022-07-29T05:50:58;16.60;74.80
69533;DHT22;56729;52.036;5.332;2022-07-29T05:52:00;16.60;75.00
69533;DHT22;56729;52.036;5.332;2022-07-29T05:53:02;16.60;74.80
69533;DHT22;56729;52.036;5.332;2022-07-29T05:54:20;16.60;74.90
69533;DHT22;56729;52.036;5.332;2022-07-29T05:55:22;16.60;75.20
69533;DHT22;56729;52.036;5.332;2022-07-29T05:56:25;16.60;75.30
69533;DHT22;56729;52.036;5.332;2022-07-29T05:57:27;16.60;75.10
69533;DHT22;56729;52.036;5.332;2022-07-29T05:58:29;16.60;74.90
69533;DHT22;56729;52.036;5.332;2022-07-29T05:59:40;16.60;75.00
69533;DHT22;56729;52.036;5.332;2022-07-29T06:00:42;16.70;75.90
69533;DHT22;56729;52.036;5.332;2022-07-29T06:01:44;16.70;74.80
69533;DHT22;56729;52.036;5.332;2022-07-29T06:02:46;16.70;75.00
69533;DHT22;56729;52.036;5.332;2022-07-29T06:03:49;16.70;75.00
69533;DHT22;56729;52.036;5.332;2022-07-29T06:04:51;16.70;74.80
69533;DHT22;56729;52.036;5.332;2022-07-29T06:05:53;16.80;74.60
69533;DHT22;56729;52.036;5.332;2022-07-29T06:06:57;16.80;74.60
69533;DHT22;56729;52.036;5.332;2022-07-29T06:07:59;16.80;74.70
69533;DHT22;56729;52.036;5.332;2022-07-29T06:09:02;16.80;74.60
69533;DHT22;56729;52.036;5.332;2022-07-29T06:10:13;16.80;74.40
69533;DHT22;56729;52.036;5.332;2022-07-29T06:11:15;16.80;74.20
69533;DHT22;56729;52.036;5.332;2022-07-29T06:12:17;16.80;74.50
69533;DHT22;56729;52.036;5.332;2022-07-29T06:13:19;16.80;74.50
69533;DHT22;56729;52.036;5.332;2022-07-29T06:14:22;16.80;74.60
69533;DHT22;56729;52.036;5.332;2022-07-29T06:15:24;16.90;75.00
69533;DHT22;56729;52.036;5.332;2022-07-29T06:16:26;16.90;75.00
69533;DHT22;56729;52.036;5.332;2022-07-29T06:17:31;16.90;74.80
69533;DHT22;56729;52.036;5.332;2022-07-29T06:18:33;16.90;75.00
69533;DHT22;56729;52.036;5.332;2022-07-29T06:19:35;16.90;74.40
69533;DHT22;56729;52.036;5.332;2022-07-29T06:20:38;17.00;74.60
69533;DHT22;56729;52.036;5.332;2022-07-29T06:21:43;17.00;74.70
69533;DHT22;56729;52.036;5.332;2022-07-29T06:22:45;17.00;74.60
69533;DHT22;56729;52.036;5.332;2022-07-29T06:23:47;17.00;74.10
69533;DHT22;56729;52.036;5.332;2022-07-29T06:24:49;17.10;74.10
69533;DHT22;56729;52.036;5.332;2022-07-29T06:25:51;17.10;74.30
69533;DHT22;56729;52.036;5.332;2022-07-29T06:26:53;17.10;73.40
69533;DHT22;56729;52.036;5.332;2022-07-29T06:27:55;17.10;73.80
69533;DHT22;56729;52.036;5.332;2022-07-29T06:28:57;17.10;73.70
69533;DHT22;56729;52.036;5.332;2022-07-29T06:29:58;17.10;73.90
69533;DHT22;56729;52.036;5.332;2022-07-29T06:31:00;17.10;74.10
69533;DHT22;56729;52.036;5.332;2022-07-29T06:32:03;17.10;73.80
69533;DHT22;56729;52.036;5.332;2022-07-29T06:33:05;17.20;74.10
69533;DHT22;56729;52.036;5.332;2022-07-29T06:34:07;17.20;73.50
69533;DHT22;56729;52.036;5.332;2022-07-29T06:35:09;17.20;73.60
69533;DHT22;56729;52.036;5.332;2022-07-29T06:36:34;17.30;73.80
69533;DHT22;56729;52.036;5.332;2022-07-29T06:37:38;17.30;74.00
69533;DHT22;56729;52.036;5.332;2022-07-29T06:38:41;17.30;74.00
69533;DHT22;56729;52.036;5.332;2022-07-29T06:39:52;17.30;73.60
69533;DHT22;56729;52.036;5.332;2022-07-29T06:41:13;17.30;73.30
69533;DHT22;56729;52.036;5.332;2022-07-29T06:42:17;17.30;74.30
69533;DHT22;56729;52.036;5.332;2022-07-29T06:43:19;17.30;74.20
69533;DHT22;56729;52.036;5.332;2022-07-29T06:44:23;17.30;74.20
69533;DHT22;56729;52.036;5.332;2022-07-29T06:45:26;17.30;73.90
69533;DHT22;56729;52.036;5.332;2022-07-29T06:46:29;17.30;73.60
69533;DHT22;56729;52.036;5.332;2022-07-29T06:47:31;17.30;73.50
69533;DHT22;56729;52.036;5.332;2022-07-29T06:48:33;17.30;73.80
69533;DHT22;56729;52.036;5.332;2022-07-29T06:49:35;17.30;73.70
69533;DHT22;56729;52.036;5.332;2022-07-29T06:50:37;17.30;73.60
69533;DHT22;56729;52.036;5.332;2022-07-29T06:51:39;17.40;73.80
69533;DHT22;56729;52.036;5.332;2022-07-29T06:52:41;17.40;73.30
69533;DHT22;56729;52.036;5.332;2022-07-29T06:53:43;17.40;73.00
69533;DHT22;56729;52.036;5.332;2022-07-29T06:55:03;17.40;73.20
69533;DHT22;56729;52.036;5.332;2022-07-29T06:56:07;17.50;73.10
69533;DHT22;56729;52.036;5.332;2022-07-29T06:57:14;17.50;73.20